Powells Point, North Carolina
Current Conditions -  °F | °C
As of 4:35 AM on Thursday 18 Dec 2014 (Local Time) from KFFA Reporting Station
Clear Clear  
Wind Chill: 38°   Ceiling: Unl
Heat Index: 44°   Visibility: 10mi
Dew Point: 36°   Wind: 10mph
Humidity: 74%   Direction: 350°N
Pressure: 30.07"   Gusts: NA
Location:  36.16°N, 75.86°W
Report Text: KFFA 180935Z AUTO 35009KT 320V030 10SM CLR 07/02 A3007 RMK AO2 T00650021
Loading
Personal Weather Stations






























Interactive Weather Map New forecast layout! Learn more

10-Day Weather Forecast

Advertisements
Track Severe Weather on mobile